Terminal Aerodrome Forecast
Issued by NWS Jackson, MS

Home | Current Version | Previous Version | Text Only | Print | Product List | Glossary On
Versions: 1 2 3 4 5 6 7 8 9 10 11 12 13 14 15 16
000
FTUS44 KJAN 012300 RRA
TAFMEI
TAF
KMEI 012343Z 0200/0224 15004KT P6SM FEW050
     FM021000 16003KT 6SM BR BKN025
     FM021130 17004KT 4SM BR BKN010
     FM021500 18008KT P6SM VCTS BKN025 BKN050CB=

USA.gov is the U.S. government's official web portal to all federal, state and local government web resources and services.